createdAt,value
2022-09-27T00:01:59.694Z,10.10
2022-09-27T00:05:01.700Z,9.37
2022-09-27T00:08:03.410Z,10.17
2022-09-27T00:11:06.390Z,10.07
2022-09-27T00:14:08.843Z,10.60
2022-09-27T00:17:10.817Z,11.17
2022-09-27T00:20:12.584Z,11.63
2022-09-27T00:23:14.210Z,11.20
2022-09-27T00:26:15.901Z,11.53
2022-09-27T00:29:18.550Z,10.80
2022-09-27T00:32:20.488Z,11.27
2022-09-27T00:35:22.174Z,11.30
2022-09-27T00:38:23.738Z,11.23
2022-09-27T00:41:27.092Z,11.60
2022-09-27T00:44:29.253Z,11.67
2022-09-27T00:47:34.819Z,10.93
2022-09-27T00:50:37.815Z,11.80
2022-09-27T00:53:46.625Z,10.90
2022-09-27T00:56:49.189Z,10.90
2022-09-27T00:59:55.840Z,11.33
2022-09-27T01:02:58.356Z,10.33
2022-09-27T01:06:00.717Z,10.13
2022-09-27T01:09:02.491Z,9.70
2022-09-27T01:12:10.631Z,9.17
2022-09-27T01:15:29.082Z,9.63
2022-09-27T01:18:33.706Z,9.70
2022-09-27T01:21:54.017Z,9.57
2022-09-27T01:25:03.347Z,9.47
2022-09-27T01:28:18.295Z,9.07
2022-09-27T01:31:20.023Z,9.70
2022-09-27T01:35:01.678Z,10.63
2022-09-27T01:38:06.620Z,11.40
2022-09-27T01:41:14.384Z,11.27
2022-09-27T01:44:47.918Z,11.30
2022-09-27T01:47:59.159Z,12.00
2022-09-27T01:51:28.195Z,11.57
2022-09-27T01:54:34.529Z,11.93
2022-09-27T01:58:01.744Z,12.07
2022-09-27T02:01:04.787Z,13.20
2022-09-27T02:04:08.898Z,11.63
2022-09-27T02:07:34.835Z,12.20
2022-09-27T02:10:40.811Z,12.03
2022-09-27T02:13:55.140Z,11.70
2022-09-27T02:17:41.108Z,9.77
2022-09-27T02:20:49.544Z,11.80
2022-09-27T02:23:53.830Z,11.70
2022-09-27T02:27:00.909Z,11.27
2022-09-27T02:30:07.316Z,11.93
2022-09-27T02:33:10.293Z,12.00
2022-09-27T02:36:12.530Z,12.20
2022-09-27T02:39:15.210Z,11.37
2022-09-27T02:42:16.929Z,12.57
2022-09-27T02:45:19.965Z,12.40
2022-09-27T02:48:40.843Z,12.47
2022-09-27T02:51:51.464Z,12.37
2022-09-27T02:55:03.240Z,11.20
2022-09-27T02:58:46.147Z,11.60
2022-09-27T03:02:13.533Z,11.83
2022-09-27T03:05:46.482Z,11.70
2022-09-27T03:08:49.211Z,11.57
2022-09-27T03:11:51.540Z,11.30
2022-09-27T03:14:57.139Z,12.20
2022-09-27T03:18:27.397Z,11.10
2022-09-27T03:21:38.024Z,10.47
2022-09-27T03:24:39.835Z,10.57
2022-09-27T03:27:41.958Z,10.30
2022-09-27T03:30:45.135Z,10.13
2022-09-27T03:33:49.548Z,10.87
2022-09-27T03:36:51.720Z,10.50
2022-09-27T03:39:53.504Z,10.70
2022-09-27T03:42:55.466Z,10.40
2022-09-27T03:45:57.355Z,11.30
2022-09-27T03:48:58.973Z,10.83
2022-09-27T03:52:00.750Z,11.13
2022-09-27T03:55:02.640Z,10.80
2022-09-27T03:58:05.729Z,11.50
2022-09-27T04:01:08.733Z,11.93
2022-09-27T04:04:11.900Z,11.50
2022-09-27T04:07:13.707Z,11.27
2022-09-27T04:10:15.475Z,12.43
2022-09-27T04:13:17.280Z,12.70
2022-09-27T04:16:27.666Z,13.83
2022-09-27T04:19:49.709Z,13.80
2022-09-27T04:22:51.512Z,14.60
2022-09-27T04:25:53.225Z,14.37
2022-09-27T04:29:16.949Z,14.33
2022-09-27T04:32:24.493Z,13.83
2022-09-27T04:36:16.469Z,12.50
2022-09-27T04:39:36.936Z,14.47
2022-09-27T04:42:38.593Z,14.30
2022-09-27T04:45:40.306Z,12.37
2022-09-27T04:48:42.700Z,12.80
2022-09-27T04:51:44.561Z,13.20
2022-09-27T04:54:46.218Z,12.30
2022-09-27T04:57:49.592Z,12.40
2022-09-27T05:00:55.871Z,12.20
2022-09-27T05:04:21.826Z,11.10
2022-09-27T05:07:26.038Z,11.10
2022-09-27T05:10:33.849Z,10.87
2022-09-27T05:13:35.941Z,10.73
2022-09-27T05:16:37.907Z,10.67
2022-09-27T05:19:58.093Z,11.30
2022-09-27T05:23:18.758Z,9.83
2022-09-27T05:26:20.861Z,10.90
2022-09-27T05:29:22.550Z,10.77
2022-09-27T05:32:49.346Z,11.17
2022-09-27T05:36:09.634Z,9.80
2022-09-27T05:39:12.390Z,10.53
2022-09-27T05:42:15.563Z,10.80
2022-09-27T05:45:18.275Z,10.83
2022-09-27T05:48:19.998Z,13.27
2022-09-27T05:51:35.645Z,12.40
2022-09-27T05:54:37.337Z,12.27
2022-09-27T05:57:39.272Z,11.90
2022-09-27T06:00:46.077Z,11.73
2022-09-27T06:04:07.716Z,11.43
2022-09-27T06:07:10.013Z,11.67
2022-09-27T06:10:11.687Z,11.37
2022-09-27T06:13:14.539Z,11.67
2022-09-27T06:16:17.505Z,10.97
2022-09-27T06:19:20.951Z,11.60
2022-09-27T06:22:23.698Z,11.60
2022-09-27T06:25:33.271Z,10.67
2022-09-27T06:28:48.493Z,10.70
2022-09-27T06:31:50.523Z,10.67
2022-09-27T06:35:00.098Z,11.10
2022-09-27T06:38:05.888Z,11.30
2022-09-27T06:41:09.278Z,11.67
2022-09-27T06:44:29.708Z,11.63
2022-09-27T06:47:55.351Z,11.13
2022-09-27T06:51:20.215Z,11.30
2022-09-27T06:54:23.861Z,11.37
2022-09-27T06:57:44.756Z,11.80
2022-09-27T07:00:49.529Z,11.13
2022-09-27T07:04:15.067Z,11.90
2022-09-27T07:07:46.281Z,9.93
2022-09-27T07:10:47.909Z,12.40
2022-09-27T07:13:50.839Z,13.57
2022-09-27T07:16:52.450Z,13.17
2022-09-27T07:19:55.443Z,13.57
2022-09-27T07:22:57.472Z,14.37
2022-09-27T07:26:04.229Z,11.57
2022-09-27T07:29:05.874Z,10.57
2022-09-27T07:32:07.547Z,10.67
2022-09-27T07:35:09.690Z,11.30
2022-09-27T07:38:13.263Z,11.63
2022-09-27T07:41:15.320Z,11.90
2022-09-27T07:44:18.346Z,11.93
2022-09-27T07:47:42.021Z,12.10
2022-09-27T07:50:50.415Z,12.43
2022-09-27T07:54:12.618Z,11.63
2022-09-27T07:57:41.625Z,13.47
2022-09-27T08:00:44.251Z,11.63
2022-09-27T08:03:46.514Z,12.13
2022-09-27T08:06:49.499Z,11.03
2022-09-27T08:09:51.683Z,9.50
2022-09-27T08:12:53.375Z,9.83
2022-09-27T08:15:55.023Z,9.30
2022-09-27T08:18:59.018Z,8.73
2022-09-27T08:22:16.326Z,9.20
2022-09-27T08:25:38.435Z,11.47
2022-09-27T08:28:49.089Z,10.23
2022-09-27T08:31:57.267Z,9.43
2022-09-27T08:34:59.771Z,9.23
2022-09-27T08:38:01.979Z,9.77
2022-09-27T08:41:10.416Z,10.20
2022-09-27T08:44:12.144Z,10.03
2022-09-27T08:47:25.169Z,9.77
2022-09-27T08:50:30.578Z,10.00
2022-09-27T08:53:53.511Z,9.13
2022-09-27T08:57:03.788Z,9.97
2022-09-27T09:00:08.248Z,10.00
2022-09-27T09:03:20.352Z,8.73
2022-09-27T09:06:34.772Z,8.60
2022-09-27T09:09:39.562Z,8.40
2022-09-27T09:12:59.639Z,7.13
2022-09-27T09:16:28.764Z,58.50
2022-09-27T09:19:35.664Z,17.10
2022-09-27T09:22:57.221Z,8.30
2022-09-27T09:26:07.991Z,6.20
2022-09-27T09:29:25.695Z,6.60
2022-09-27T09:32:27.389Z,5.63
2022-09-27T09:35:40.257Z,8.65
2022-09-27T09:38:54.723Z,7.07
2022-09-27T09:42:06.786Z,7.32
2022-09-27T09:45:19.395Z,6.63
2022-09-27T09:48:29.772Z,6.57
2022-09-27T09:51:38.143Z,6.17
2022-09-27T09:54:55.083Z,4.00
2022-09-27T09:58:03.472Z,3.60
2022-09-27T10:01:18.758Z,3.90
2022-09-27T10:04:23.334Z,3.60
2022-09-27T10:07:27.198Z,3.90
2022-09-27T10:10:29.653Z,3.90
2022-09-27T10:13:49.874Z,4.40
2022-09-27T10:16:56.026Z,3.60
2022-09-27T10:19:58.502Z,3.57
2022-09-27T10:23:04.623Z,2.80
2022-09-27T10:26:33.417Z,3.80
2022-09-27T10:29:40.660Z,4.20
2022-09-27T10:32:57.670Z,3.20
2022-09-27T10:36:23.091Z,3.70
2022-09-27T10:40:02.439Z,4.07
2022-09-27T10:43:30.534Z,4.90
2022-09-27T10:46:46.159Z,4.97
2022-09-27T10:50:07.933Z,4.90
2022-09-27T10:53:36.837Z,5.40
2022-09-27T10:57:04.923Z,5.23
2022-09-27T11:00:08.718Z,5.40
2022-09-27T11:03:15.495Z,4.97
2022-09-27T11:06:23.085Z,4.97
2022-09-27T11:09:26.594Z,5.13
2022-09-27T11:12:30.825Z,5.40
2022-09-27T11:15:38.152Z,5.00
2022-09-27T11:18:58.211Z,5.40
2022-09-27T11:22:05.198Z,5.20
2022-09-27T11:25:07.863Z,5.00
2022-09-27T11:28:12.798Z,4.93
2022-09-27T11:31:19.461Z,4.40
2022-09-27T11:34:43.543Z,5.10
2022-09-27T11:37:52.356Z,4.63
2022-09-27T11:41:15.288Z,5.10
2022-09-27T11:44:29.367Z,5.07
2022-09-27T11:47:34.131Z,4.90
2022-09-27T11:50:45.990Z,4.87
2022-09-27T11:53:56.667Z,5.17
2022-09-27T11:56:58.533Z,4.50
2022-09-27T12:00:20.963Z,5.00
2022-09-27T12:03:51.904Z,4.60
2022-09-27T12:07:00.575Z,4.57
2022-09-27T12:10:05.132Z,4.20
2022-09-27T12:13:12.797Z,4.20
2022-09-27T12:16:16.220Z,4.63
2022-09-27T12:19:20.491Z,5.00
2022-09-27T12:22:57.528Z,6.63
2022-09-27T12:26:03.887Z,5.17
2022-09-27T12:29:26.350Z,4.93
2022-09-27T12:32:33.308Z,27.23
2022-09-27T12:35:45.325Z,5.00
2022-09-27T12:39:01.898Z,13.40
2022-09-27T12:42:10.476Z,5.00
2022-09-27T12:45:28.229Z,5.00
2022-09-27T12:48:48.806Z,4.40
2022-09-27T12:51:50.692Z,5.17
2022-09-27T12:54:58.579Z,4.60
2022-09-27T12:58:35.815Z,5.07
2022-09-27T13:01:49.792Z,4.43
2022-09-27T13:04:57.214Z,5.00
2022-09-27T13:08:09.003Z,4.60
2022-09-27T13:11:11.595Z,4.50
2022-09-27T13:14:24.261Z,4.63
2022-09-27T13:17:32.825Z,4.43
2022-09-27T13:20:35.214Z,4.67
2022-09-27T13:23:42.257Z,4.43
2022-09-27T13:26:45.568Z,5.00
2022-09-27T13:29:48.491Z,4.70
2022-09-27T13:33:08.857Z,5.50
2022-09-27T13:36:33.760Z,5.37
2022-09-27T13:39:42.938Z,5.50
2022-09-27T13:43:12.054Z,4.70
2022-09-27T13:46:31.690Z,5.50
2022-09-27T13:49:33.649Z,5.10
2022-09-27T13:53:02.983Z,4.80
2022-09-27T13:56:06.782Z,5.00
2022-09-27T13:59:20.098Z,5.30
2022-09-27T14:03:02.780Z,9.63
2022-09-27T14:06:09.376Z,6.13
2022-09-27T14:09:20.454Z,10.43
2022-09-27T14:12:29.454Z,6.20
2022-09-27T14:15:32.715Z,5.17
2022-09-27T14:18:43.086Z,6.37
2022-09-27T14:21:45.604Z,5.43
2022-09-27T14:25:03.242Z,6.47
2022-09-27T14:28:26.139Z,5.30
2022-09-27T14:31:41.764Z,6.10
2022-09-27T14:35:03.249Z,6.30
2022-09-27T14:38:26.396Z,5.20
2022-09-27T14:41:28.030Z,7.27
2022-09-27T14:44:30.804Z,7.00
2022-09-27T14:47:32.897Z,6.70
2022-09-27T14:50:36.069Z,6.47
2022-09-27T14:53:42.610Z,5.87
2022-09-27T14:56:44.224Z,6.30
2022-09-27T14:59:47.736Z,7.13
2022-09-27T15:02:53.227Z,5.30
2022-09-27T15:05:55.145Z,12.10
2022-09-27T15:08:57.970Z,6.77
2022-09-27T15:12:00.882Z,6.20
2022-09-27T15:15:02.459Z,6.00
2022-09-27T15:18:04.620Z,7.73
2022-09-27T15:21:06.903Z,8.40
2022-09-27T15:24:28.535Z,6.27
2022-09-27T15:27:40.559Z,7.00
2022-09-27T15:34:28.060Z,7.60
2022-09-27T15:37:36.508Z,7.00
2022-09-27T15:40:50.924Z,6.93
2022-09-27T15:43:52.785Z,7.13
2022-09-27T15:46:54.866Z,7.13
2022-09-27T15:49:56.669Z,7.60
2022-09-27T15:52:58.547Z,7.57
2022-09-27T15:56:00.923Z,8.23
2022-09-27T15:59:02.849Z,6.00
2022-09-27T16:02:11.473Z,5.00
2022-09-27T16:05:13.653Z,4.20
2022-09-27T16:08:15.565Z,4.10
2022-09-27T16:11:17.860Z,3.70
2022-09-27T16:14:19.946Z,3.60
2022-09-27T16:17:21.690Z,4.00
2022-09-27T16:20:26.255Z,3.67
2022-09-27T16:23:28.272Z,4.97
2022-09-27T16:26:29.984Z,4.43
2022-09-27T16:29:31.604Z,10.33
2022-09-27T16:32:33.231Z,8.00
2022-09-27T16:35:34.990Z,4.10
2022-09-27T16:38:36.623Z,3.67
2022-09-27T16:41:38.972Z,3.97
2022-09-27T16:44:42.968Z,3.70
2022-09-27T16:47:44.789Z,3.67
2022-09-27T16:51:05.151Z,5.60
2022-09-27T16:54:07.396Z,4.70
2022-09-27T16:57:11.902Z,4.60
2022-09-27T17:00:13.770Z,7.07
2022-09-27T17:03:16.012Z,6.33
2022-09-27T17:06:18.454Z,7.57
2022-09-27T17:09:20.956Z,7.13
2022-09-27T17:12:26.768Z,8.33
2022-09-27T17:15:29.683Z,7.87
2022-09-27T17:18:31.386Z,6.63
2022-09-27T17:21:37.759Z,6.00
2022-09-27T17:24:39.987Z,6.67
2022-09-27T17:27:41.828Z,6.73
2022-09-27T17:30:43.421Z,5.93
2022-09-27T17:33:46.505Z,6.03
2022-09-27T17:36:50.389Z,6.00
2022-09-27T17:39:52.581Z,6.20
2022-09-27T17:42:54.205Z,5.97
2022-09-27T17:45:55.816Z,5.80
2022-09-27T17:49:16.422Z,6.30
2022-09-27T17:52:18.047Z,6.67
2022-09-27T17:55:21.376Z,2.90
2022-09-27T17:58:22.994Z,2.10
2022-09-27T18:01:25.393Z,2.20
2022-09-27T18:04:27.108Z,2.03
2022-09-27T18:07:29.173Z,1.70
2022-09-27T18:10:30.900Z,1.00
2022-09-27T18:13:37.220Z,2.73
2022-09-27T18:16:41.573Z,2.17
2022-09-27T18:19:43.151Z,1.30
2022-09-27T18:22:44.802Z,1.50
2022-09-27T18:25:54.084Z,3.07
2022-09-27T18:28:59.776Z,1.50
2022-09-27T18:32:02.268Z,1.70
2022-09-27T18:35:03.947Z,3.80
2022-09-27T18:38:05.508Z,2.10
2022-09-27T18:41:07.285Z,3.80
2022-09-27T18:44:11.022Z,2.60
2022-09-27T18:47:12.625Z,2.00
2022-09-27T18:50:14.250Z,1.80
2022-09-27T18:53:15.866Z,1.60
2022-09-27T18:56:17.560Z,2.07
2022-09-27T18:59:21.170Z,2.07
2022-09-27T19:02:22.771Z,1.77
2022-09-27T19:05:24.406Z,1.20
2022-09-27T19:08:26.356Z,1.87
2022-09-27T19:11:30.460Z,1.70
2022-09-27T19:14:32.147Z,1.57
2022-09-27T19:17:33.845Z,1.70
2022-09-27T19:20:35.935Z,1.83
2022-09-27T19:23:38.211Z,1.70
2022-09-27T19:26:39.923Z,1.30
2022-09-27T19:29:41.711Z,1.43
2022-09-27T19:32:44.628Z,2.13
2022-09-27T19:35:47.236Z,1.67
2022-09-27T19:38:49.449Z,2.07
2022-09-27T19:41:51.103Z,2.00
2022-09-27T19:44:52.788Z,1.60
2022-09-27T19:47:55.707Z,2.17
2022-09-27T19:50:57.853Z,2.07
2022-09-27T19:53:59.415Z,2.07
2022-09-27T19:57:01.057Z,5.13
2022-09-27T20:00:02.905Z,2.50
2022-09-27T20:03:06.255Z,2.17
2022-09-27T20:06:09.863Z,2.37
2022-09-27T20:09:11.717Z,2.40
2022-09-27T20:12:13.337Z,2.77
2022-09-27T20:15:15.217Z,4.40
2022-09-27T20:18:16.858Z,3.53
2022-09-27T20:21:19.442Z,1.90
2022-09-27T20:24:21.141Z,1.97
2022-09-27T20:27:22.737Z,1.87
2022-09-27T20:30:24.521Z,2.43
2022-09-27T20:33:41.842Z,2.10
2022-09-27T20:36:46.859Z,1.33
2022-09-27T20:39:48.996Z,1.53
2022-09-27T20:42:50.569Z,1.60
2022-09-27T20:45:52.338Z,1.43
2022-09-27T20:48:55.845Z,1.43
2022-09-27T20:51:57.875Z,1.37
2022-09-27T20:54:59.537Z,1.50
2022-09-27T20:58:01.226Z,1.67
2022-09-27T21:01:06.409Z,1.97
2022-09-27T21:04:09.356Z,1.87
2022-09-27T21:07:10.886Z,1.97
2022-09-27T21:10:12.446Z,1.90
2022-09-27T21:13:14.007Z,1.90
2022-09-27T21:16:17.049Z,2.13
2022-09-27T21:19:19.295Z,1.80
2022-09-27T21:22:21.005Z,1.80
2022-09-27T21:25:23.133Z,1.90
2022-09-27T21:28:24.755Z,1.80
2022-09-27T21:31:26.350Z,1.90
2022-09-27T21:34:28.021Z,2.10
2022-09-27T21:37:29.550Z,2.00
2022-09-27T21:40:31.460Z,2.10
2022-09-27T21:43:34.156Z,2.13
2022-09-27T21:46:38.736Z,2.00
2022-09-27T21:49:40.360Z,1.93
2022-09-27T21:52:41.895Z,2.30
2022-09-27T21:55:53.356Z,2.40
2022-09-27T21:58:55.053Z,2.53
2022-09-27T22:01:56.750Z,2.40
2022-09-27T22:04:58.933Z,2.10
2022-09-27T22:08:00.648Z,2.30
2022-09-27T22:11:02.458Z,2.30
2022-09-27T22:14:06.797Z,2.10
2022-09-27T22:17:08.401Z,2.20
2022-09-27T22:20:10.027Z,2.10
2022-09-27T22:23:11.689Z,2.03
2022-09-27T22:26:14.738Z,2.17
2022-09-27T22:29:16.744Z,2.00
2022-09-27T22:32:18.418Z,2.00
2022-09-27T22:35:20.300Z,1.97
2022-09-27T22:38:21.967Z,2.20
2022-09-27T22:41:24.029Z,2.30
2022-09-27T22:44:25.629Z,2.47
2022-09-27T22:47:27.203Z,2.30
2022-09-27T22:50:28.793Z,2.30
2022-09-27T22:53:30.947Z,2.30
2022-09-27T22:56:32.529Z,2.27
2022-09-27T22:59:34.110Z,2.50
2022-09-27T23:02:35.706Z,2.50
2022-09-27T23:05:37.312Z,2.47
2022-09-27T23:08:39.227Z,2.57
2022-09-27T23:11:40.912Z,2.37
2022-09-27T23:14:42.863Z,2.40
2022-09-27T23:17:45.076Z,2.40
2022-09-27T23:20:46.812Z,2.63
2022-09-27T23:23:49.208Z,2.93
2022-09-27T23:27:10.798Z,2.40
2022-09-27T23:30:16.282Z,3.13
2022-09-27T23:33:17.962Z,3.00
2022-09-27T23:36:22.555Z,2.80
2022-09-27T23:39:24.100Z,2.47
2022-09-27T23:42:27.045Z,2.63
2022-09-27T23:45:28.734Z,2.40
2022-09-27T23:48:30.287Z,2.73
2022-09-27T23:51:31.855Z,3.20
2022-09-27T23:54:33.462Z,2.87
2022-09-27T23:57:35.087Z,2.57
